sensor_id;sensor_type;location;lat;lon;timestamp;temperature;humidity
13521;DHT22;6832;51.186;3.236;2023-04-24T00:01:10;16.90;59.00
13521;DHT22;6832;51.186;3.236;2023-04-24T00:03:38;16.90;59.00
13521;DHT22;6832;51.186;3.236;2023-04-24T00:06:05;16.90;59.00
13521;DHT22;6832;51.186;3.236;2023-04-24T00:08:33;16.80;58.90
13521;DHT22;6832;51.186;3.236;2023-04-24T00:11:02;16.80;58.90
13521;DHT22;6832;51.186;3.236;2023-04-24T00:13:29;16.90;59.00
13521;DHT22;6832;51.186;3.236;2023-04-24T00:15:56;16.80;58.90
13521;DHT22;6832;51.186;3.236;2023-04-24T00:18:23;16.80;58.90
13521;DHT22;6832;51.186;3.236;2023-04-24T00:20:50;16.80;58.90
13521;DHT22;6832;51.186;3.236;2023-04-24T00:23:17;16.80;58.90
13521;DHT22;6832;51.186;3.236;2023-04-24T00:25:44;16.80;58.90
13521;DHT22;6832;51.186;3.236;2023-04-24T00:28:12;16.80;58.90
13521;DHT22;6832;51.186;3.236;2023-04-24T00:30:39;16.80;58.90
13521;DHT22;6832;51.186;3.236;2023-04-24T00:33:07;16.80;58.90
13521;DHT22;6832;51.186;3.236;2023-04-24T00:35:33;16.80;58.90
13521;DHT22;6832;51.186;3.236;2023-04-24T00:38:00;16.80;58.90
13521;DHT22;6832;51.186;3.236;2023-04-24T00:40:28;16.70;58.80
13521;DHT22;6832;51.186;3.236;2023-04-24T00:42:55;16.70;58.80
13521;DHT22;6832;51.186;3.236;2023-04-24T00:45:24;16.70;58.90
13521;DHT22;6832;51.186;3.236;2023-04-24T00:47:52;16.70;58.90
13521;DHT22;6832;51.186;3.236;2023-04-24T00:50:21;16.70;58.90
13521;DHT22;6832;51.186;3.236;2023-04-24T00:52:48;16.70;58.90
13521;DHT22;6832;51.186;3.236;2023-04-24T00:55:15;16.70;58.90
13521;DHT22;6832;51.186;3.236;2023-04-24T00:57:43;16.70;58.90
13521;DHT22;6832;51.186;3.236;2023-04-24T01:00:12;16.70;58.90
13521;DHT22;6832;51.186;3.236;2023-04-24T01:02:41;16.70;58.90
13521;DHT22;6832;51.186;3.236;2023-04-24T01:05:11;16.70;58.90
13521;DHT22;6832;51.186;3.236;2023-04-24T01:07:39;16.70;58.90
13521;DHT22;6832;51.186;3.236;2023-04-24T01:10:09;16.70;58.90
13521;DHT22;6832;51.186;3.236;2023-04-24T01:12:37;16.70;58.90
13521;DHT22;6832;51.186;3.236;2023-04-24T01:15:05;16.70;58.90
13521;DHT22;6832;51.186;3.236;2023-04-24T01:17:32;16.60;59.40
13521;DHT22;6832;51.186;3.236;2023-04-24T01:20:01;16.60;58.90
13521;DHT22;6832;51.186;3.236;2023-04-24T01:22:33;16.60;58.90
13521;DHT22;6832;51.186;3.236;2023-04-24T01:25:00;16.60;58.90
13521;DHT22;6832;51.186;3.236;2023-04-24T01:27:27;16.60;58.90
13521;DHT22;6832;51.186;3.236;2023-04-24T01:29:54;16.60;58.90
13521;DHT22;6832;51.186;3.236;2023-04-24T01:32:21;16.60;58.90
13521;DHT22;6832;51.186;3.236;2023-04-24T01:34:49;16.60;58.90
13521;DHT22;6832;51.186;3.236;2023-04-24T01:37:16;16.60;58.90
13521;DHT22;6832;51.186;3.236;2023-04-24T01:39:44;16.60;58.90
13521;DHT22;6832;51.186;3.236;2023-04-24T01:42:13;16.60;59.00
13521;DHT22;6832;51.186;3.236;2023-04-24T01:44:40;16.60;59.00
13521;DHT22;6832;51.186;3.236;2023-04-24T01:47:08;16.60;59.00
13521;DHT22;6832;51.186;3.236;2023-04-24T01:49:36;16.60;59.60
13521;DHT22;6832;51.186;3.236;2023-04-24T01:52:04;16.60;59.00
13521;DHT22;6832;51.186;3.236;2023-04-24T01:54:31;16.50;58.90
13521;DHT22;6832;51.186;3.236;2023-04-24T01:57:02;16.50;58.90
13521;DHT22;6832;51.186;3.236;2023-04-24T01:59:30;16.50;58.90
13521;DHT22;6832;51.186;3.236;2023-04-24T02:01:58;16.50;58.90
13521;DHT22;6832;51.186;3.236;2023-04-24T02:04:25;16.50;58.90
13521;DHT22;6832;51.186;3.236;2023-04-24T02:06:52;16.50;59.00
13521;DHT22;6832;51.186;3.236;2023-04-24T02:09:18;16.50;59.00
13521;DHT22;6832;51.186;3.236;2023-04-24T02:11:46;16.50;59.00
13521;DHT22;6832;51.186;3.236;2023-04-24T02:14:14;16.50;59.00
13521;DHT22;6832;51.186;3.236;2023-04-24T02:16:41;16.50;59.00
13521;DHT22;6832;51.186;3.236;2023-04-24T02:19:09;16.50;59.00
13521;DHT22;6832;51.186;3.236;2023-04-24T02:21:36;16.50;59.00
13521;DHT22;6832;51.186;3.236;2023-04-24T02:24:03;16.50;59.00
13521;DHT22;6832;51.186;3.236;2023-04-24T02:26:30;16.40;58.90
13521;DHT22;6832;51.186;3.236;2023-04-24T02:28:57;16.50;59.00
13521;DHT22;6832;51.186;3.236;2023-04-24T02:31:26;16.50;59.10
13521;DHT22;6832;51.186;3.236;2023-04-24T02:33:53;16.50;59.10
13521;DHT22;6832;51.186;3.236;2023-04-24T02:36:19;16.50;59.00
13521;DHT22;6832;51.186;3.236;2023-04-24T02:38:47;16.50;59.10
13521;DHT22;6832;51.186;3.236;2023-04-24T02:41:13;16.50;59.10
13521;DHT22;6832;51.186;3.236;2023-04-24T02:43:40;16.40;59.00
13521;DHT22;6832;51.186;3.236;2023-04-24T02:46:07;16.40;59.00
13521;DHT22;6832;51.186;3.236;2023-04-24T02:48:36;16.50;59.10
13521;DHT22;6832;51.186;3.236;2023-04-24T02:51:04;16.40;59.00
13521;DHT22;6832;51.186;3.236;2023-04-24T02:53:32;16.40;59.10
13521;DHT22;6832;51.186;3.236;2023-04-24T02:55:59;16.40;59.00
13521;DHT22;6832;51.186;3.236;2023-04-24T02:58:27;16.40;59.00
13521;DHT22;6832;51.186;3.236;2023-04-24T03:00:54;16.40;59.00
13521;DHT22;6832;51.186;3.236;2023-04-24T03:03:22;16.40;59.00
13521;DHT22;6832;51.186;3.236;2023-04-24T03:05:50;16.40;59.10
13521;DHT22;6832;51.186;3.236;2023-04-24T03:08:17;16.40;59.00
13521;DHT22;6832;51.186;3.236;2023-04-24T03:10:44;16.40;59.10
13521;DHT22;6832;51.186;3.236;2023-04-24T03:13:11;16.40;59.10
13521;DHT22;6832;51.186;3.236;2023-04-24T03:15:39;16.40;59.10
13521;DHT22;6832;51.186;3.236;2023-04-24T03:18:06;16.40;59.10
13521;DHT22;6832;51.186;3.236;2023-04-24T03:20:32;16.40;59.10
13521;DHT22;6832;51.186;3.236;2023-04-24T03:23:01;16.30;59.10
13521;DHT22;6832;51.186;3.236;2023-04-24T03:25:28;16.30;59.00
13521;DHT22;6832;51.186;3.236;2023-04-24T03:27:55;16.30;59.00
13521;DHT22;6832;51.186;3.236;2023-04-24T03:30:23;16.30;59.00
13521;DHT22;6832;51.186;3.236;2023-04-24T03:32:50;16.30;59.00
13521;DHT22;6832;51.186;3.236;2023-04-24T03:35:17;16.30;59.00
13521;DHT22;6832;51.186;3.236;2023-04-24T03:37:44;16.30;59.00
13521;DHT22;6832;51.186;3.236;2023-04-24T03:40:12;16.30;59.10
13521;DHT22;6832;51.186;3.236;2023-04-24T03:42:39;16.30;59.10
13521;DHT22;6832;51.186;3.236;2023-04-24T03:45:07;16.30;59.10
13521;DHT22;6832;51.186;3.236;2023-04-24T03:47:35;16.30;59.10
13521;DHT22;6832;51.186;3.236;2023-04-24T03:50:02;16.30;59.10
13521;DHT22;6832;51.186;3.236;2023-04-24T03:52:29;16.20;59.00
13521;DHT22;6832;51.186;3.236;2023-04-24T03:54:56;16.20;59.00
13521;DHT22;6832;51.186;3.236;2023-04-24T03:57:24;16.30;59.10
13521;DHT22;6832;51.186;3.236;2023-04-24T03:59:51;16.20;59.00
13521;DHT22;6832;51.186;3.236;2023-04-24T04:02:19;16.20;59.10
13521;DHT22;6832;51.186;3.236;2023-04-24T04:04:45;16.20;59.10
13521;DHT22;6832;51.186;3.236;2023-04-24T04:07:15;16.20;59.10
13521;DHT22;6832;51.186;3.236;2023-04-24T04:09:42;16.20;59.10
13521;DHT22;6832;51.186;3.236;2023-04-24T04:12:10;16.20;59.10
13521;DHT22;6832;51.186;3.236;2023-04-24T04:14:38;16.20;59.10
13521;DHT22;6832;51.186;3.236;2023-04-24T04:17:05;16.20;59.10
13521;DHT22;6832;51.186;3.236;2023-04-24T04:19:32;16.20;59.10
13521;DHT22;6832;51.186;3.236;2023-04-24T04:21:59;16.20;59.10
13521;DHT22;6832;51.186;3.236;2023-04-24T04:24:26;16.20;59.10
13521;DHT22;6832;51.186;3.236;2023-04-24T04:26:54;16.10;59.10
13521;DHT22;6832;51.186;3.236;2023-04-24T04:29:22;16.10;59.00
13521;DHT22;6832;51.186;3.236;2023-04-24T04:31:50;16.20;59.10
13521;DHT22;6832;51.186;3.236;2023-04-24T04:34:18;16.10;59.00
13521;DHT22;6832;51.186;3.236;2023-04-24T04:36:45;16.20;59.10
13521;DHT22;6832;51.186;3.236;2023-04-24T04:39:12;16.10;59.00
13521;DHT22;6832;51.186;3.236;2023-04-24T04:41:40;16.10;59.00
13521;DHT22;6832;51.186;3.236;2023-04-24T04:44:07;16.10;59.00
13521;DHT22;6832;51.186;3.236;2023-04-24T04:46:35;16.10;59.00
13521;DHT22;6832;51.186;3.236;2023-04-24T04:49:05;16.10;59.00
13521;DHT22;6832;51.186;3.236;2023-04-24T04:51:34;16.10;59.00
13521;DHT22;6832;51.186;3.236;2023-04-24T04:54:01;16.10;59.00
13521;DHT22;6832;51.186;3.236;2023-04-24T04:56:28;16.10;59.00
13521;DHT22;6832;51.186;3.236;2023-04-24T04:58:55;16.00;58.90
13521;DHT22;6832;51.186;3.236;2023-04-24T05:01:25;16.00;58.90
13521;DHT22;6832;51.186;3.236;2023-04-24T05:03:53;16.00;58.90
13521;DHT22;6832;51.186;3.236;2023-04-24T05:06:21;16.10;59.00
13521;DHT22;6832;51.186;3.236;2023-04-24T05:08:49;16.10;59.10
13521;DHT22;6832;51.186;3.236;2023-04-24T05:11:16;16.10;59.00
13521;DHT22;6832;51.186;3.236;2023-04-24T05:13:43;16.00;58.90
13521;DHT22;6832;51.186;3.236;2023-04-24T05:16:10;16.00;58.90
13521;DHT22;6832;51.186;3.236;2023-04-24T05:18:37;16.00;58.90
13521;DHT22;6832;51.186;3.236;2023-04-24T05:21:05;16.00;58.90
13521;DHT22;6832;51.186;3.236;2023-04-24T05:23:33;16.00;59.00
13521;DHT22;6832;51.186;3.236;2023-04-24T05:26:00;16.00;59.00
13521;DHT22;6832;51.186;3.236;2023-04-24T05:28:28;16.00;58.90
13521;DHT22;6832;51.186;3.236;2023-04-24T05:30:55;16.00;58.90
13521;DHT22;6832;51.186;3.236;2023-04-24T05:33:22;16.00;58.90
13521;DHT22;6832;51.186;3.236;2023-04-24T05:35:50;16.00;58.90
13521;DHT22;6832;51.186;3.236;2023-04-24T05:38:17;16.00;59.00
13521;DHT22;6832;51.186;3.236;2023-04-24T05:40:47;16.00;59.00
13521;DHT22;6832;51.186;3.236;2023-04-24T05:43:14;16.00;59.00
13521;DHT22;6832;51.186;3.236;2023-04-24T05:45:41;16.00;59.00
13521;DHT22;6832;51.186;3.236;2023-04-24T05:48:08;16.00;59.00
13521;DHT22;6832;51.186;3.236;2023-04-24T05:50:36;16.00;59.00
13521;DHT22;6832;51.186;3.236;2023-04-24T05:53:04;16.00;59.00
13521;DHT22;6832;51.186;3.236;2023-04-24T05:55:33;15.90;58.90
13521;DHT22;6832;51.186;3.236;2023-04-24T05:58:02;15.90;58.90
13521;DHT22;6832;51.186;3.236;2023-04-24T06:00:30;15.90;58.90
13521;DHT22;6832;51.186;3.236;2023-04-24T06:03:00;16.00;59.00
13521;DHT22;6832;51.186;3.236;2023-04-24T06:05:29;15.90;58.90
13521;DHT22;6832;51.186;3.236;2023-04-24T06:08:00;15.90;58.90
13521;DHT22;6832;51.186;3.236;2023-04-24T06:10:27;15.90;59.00
13521;DHT22;6832;51.186;3.236;2023-04-24T06:12:54;15.90;59.00
13521;DHT22;6832;51.186;3.236;2023-04-24T06:15:28;15.90;59.00
13521;DHT22;6832;51.186;3.236;2023-04-24T06:17:56;15.90;59.00
13521;DHT22;6832;51.186;3.236;2023-04-24T06:20:23;15.90;59.00
13521;DHT22;6832;51.186;3.236;2023-04-24T06:22:50;15.90;59.00
13521;DHT22;6832;51.186;3.236;2023-04-24T06:25:17;15.90;59.00
13521;DHT22;6832;51.186;3.236;2023-04-24T06:27:44;15.90;59.00
13521;DHT22;6832;51.186;3.236;2023-04-24T06:30:12;15.90;59.00
13521;DHT22;6832;51.186;3.236;2023-04-24T06:32:41;15.90;59.00
13521;DHT22;6832;51.186;3.236;2023-04-24T06:35:08;15.90;59.00
13521;DHT22;6832;51.186;3.236;2023-04-24T06:37:36;15.90;59.00
13521;DHT22;6832;51.186;3.236;2023-04-24T06:40:04;15.90;59.00
13521;DHT22;6832;51.186;3.236;2023-04-24T06:42:31;15.90;59.00
13521;DHT22;6832;51.186;3.236;2023-04-24T06:44:58;15.90;59.00
13521;DHT22;6832;51.186;3.236;2023-04-24T06:47:25;15.90;59.00
13521;DHT22;6832;51.186;3.236;2023-04-24T06:49:54;15.90;59.10
13521;DHT22;6832;51.186;3.236;2023-04-24T06:52:21;15.90;59.10
13521;DHT22;6832;51.186;3.236;2023-04-24T06:54:50;15.90;59.10
13521;DHT22;6832;51.186;3.236;2023-04-24T06:57:17;15.80;59.00
13521;DHT22;6832;51.186;3.236;2023-04-24T06:59:44;15.90;59.10
13521;DHT22;6832;51.186;3.236;2023-04-24T07:02:11;15.80;59.00
13521;DHT22;6832;51.186;3.236;2023-04-24T07:04:38;15.80;59.00
13521;DHT22;6832;51.186;3.236;2023-04-24T07:07:07;15.90;59.10
13521;DHT22;6832;51.186;3.236;2023-04-24T07:09:35;15.90;59.10
13521;DHT22;6832;51.186;3.236;2023-04-24T07:12:04;15.90;59.10
13521;DHT22;6832;51.186;3.236;2023-04-24T07:14:32;15.80;59.10
13521;DHT22;6832;51.186;3.236;2023-04-24T07:17:02;15.90;59.10
13521;DHT22;6832;51.186;3.236;2023-04-24T07:19:29;15.90;59.20
13521;DHT22;6832;51.186;3.236;2023-04-24T07:21:56;15.80;59.00
13521;DHT22;6832;51.186;3.236;2023-04-24T07:24:25;15.90;59.20
13521;DHT22;6832;51.186;3.236;2023-04-24T07:26:53;15.90;59.20
13521;DHT22;6832;51.186;3.236;2023-04-24T07:29:21;15.80;59.10
13521;DHT22;6832;51.186;3.236;2023-04-24T07:31:48;15.90;59.20
13521;DHT22;6832;51.186;3.236;2023-04-24T07:34:15;15.80;59.10
13521;DHT22;6832;51.186;3.236;2023-04-24T07:36:42;15.80;59.10
13521;DHT22;6832;51.186;3.236;2023-04-24T07:39:09;15.80;59.10
13521;DHT22;6832;51.186;3.236;2023-04-24T07:41:37;15.80;59.10
13521;DHT22;6832;51.186;3.236;2023-04-24T07:44:04;15.80;59.20
13521;DHT22;6832;51.186;3.236;2023-04-24T07:46:31;15.80;59.10
13521;DHT22;6832;51.186;3.236;2023-04-24T07:48:58;15.80;59.00
13521;DHT22;6832;51.186;3.236;2023-04-24T07:51:26;15.80;59.10
13521;DHT22;6832;51.186;3.236;2023-04-24T07:53:54;15.80;59.10
13521;DHT22;6832;51.186;3.236;2023-04-24T07:56:21;15.80;59.10
13521;DHT22;6832;51.186;3.236;2023-04-24T07:58:49;15.80;59.10
13521;DHT22;6832;51.186;3.236;2023-04-24T08:01:16;15.80;59.10
13521;DHT22;6832;51.186;3.236;2023-04-24T08:03:43;15.80;59.10
13521;DHT22;6832;51.186;3.236;2023-04-24T08:06:10;15.80;59.10
13521;DHT22;6832;51.186;3.236;2023-04-24T08:08:38;15.90;59.20
13521;DHT22;6832;51.186;3.236;2023-04-24T08:11:05;15.90;59.20
13521;DHT22;6832;51.186;3.236;2023-04-24T08:13:32;15.90;59.20
13521;DHT22;6832;51.186;3.236;2023-04-24T08:16:01;15.90;59.20
13521;DHT22;6832;51.186;3.236;2023-04-24T08:18:28;15.90;59.20
13521;DHT22;6832;51.186;3.236;2023-04-24T08:20:55;15.90;59.20
13521;DHT22;6832;51.186;3.236;2023-04-24T08:23:26;15.90;59.20
13521;DHT22;6832;51.186;3.236;2023-04-24T08:25:56;15.80;59.20
13521;DHT22;6832;51.186;3.236;2023-04-24T08:28:23;15.90;59.30
13521;DHT22;6832;51.186;3.236;2023-04-24T08:30:51;15.90;59.30
13521;DHT22;6832;51.186;3.236;2023-04-24T08:33:22;15.90;59.30
13521;DHT22;6832;51.186;3.236;2023-04-24T08:35:49;15.90;59.30
13521;DHT22;6832;51.186;3.236;2023-04-24T08:38:16;15.90;59.30
13521;DHT22;6832;51.186;3.236;2023-04-24T08:40:43;15.90;59.30
13521;DHT22;6832;51.186;3.236;2023-04-24T08:43:12;15.90;59.30
13521;DHT22;6832;51.186;3.236;2023-04-24T08:45:40;15.90;59.30
13521;DHT22;6832;51.186;3.236;2023-04-24T08:48:07;15.90;59.30
13521;DHT22;6832;51.186;3.236;2023-04-24T08:50:37;15.90;59.30
13521;DHT22;6832;51.186;3.236;2023-04-24T08:53:07;15.90;59.30
13521;DHT22;6832;51.186;3.236;2023-04-24T08:55:35;16.00;59.40
13521;DHT22;6832;51.186;3.236;2023-04-24T08:58:04;16.00;59.30
13521;DHT22;6832;51.186;3.236;2023-04-24T09:00:31;16.00;59.30
13521;DHT22;6832;51.186;3.236;2023-04-24T09:03:00;16.00;59.30
13521;DHT22;6832;51.186;3.236;2023-04-24T09:05:29;16.00;59.30
13521;DHT22;6832;51.186;3.236;2023-04-24T09:07:57;16.10;59.50
13521;DHT22;6832;51.186;3.236;2023-04-24T09:10:26;16.00;59.30
13521;DHT22;6832;51.186;3.236;2023-04-24T09:12:56;16.00;59.30
13521;DHT22;6832;51.186;3.236;2023-04-24T09:15:28;16.00;59.30
13521;DHT22;6832;51.186;3.236;2023-04-24T09:17:55;16.00;59.30
13521;DHT22;6832;51.186;3.236;2023-04-24T09:20:23;16.10;59.40
13521;DHT22;6832;51.186;3.236;2023-04-24T09:22:54;16.10;59.40
13521;DHT22;6832;51.186;3.236;2023-04-24T09:25:25;16.10;59.40
13521;DHT22;6832;51.186;3.236;2023-04-24T09:28:00;16.10;59.40
13521;DHT22;6832;51.186;3.236;2023-04-24T09:30:28;16.10;59.40
13521;DHT22;6832;51.186;3.236;2023-04-24T09:33:10;16.10;59.40
13521;DHT22;6832;51.186;3.236;2023-04-24T09:35:40;16.10;59.40
13521;DHT22;6832;51.186;3.236;2023-04-24T09:38:34;16.10;59.40
13521;DHT22;6832;51.186;3.236;2023-04-24T09:41:05;16.10;59.40
13521;DHT22;6832;51.186;3.236;2023-04-24T09:43:32;16.20;59.50
13521;DHT22;6832;51.186;3.236;2023-04-24T09:46:03;16.10;59.40
13521;DHT22;6832;51.186;3.236;2023-04-24T09:48:31;16.10;59.40
13521;DHT22;6832;51.186;3.236;2023-04-24T09:51:01;16.20;59.60
13521;DHT22;6832;51.186;3.236;2023-04-24T09:53:29;16.20;59.50
13521;DHT22;6832;51.186;3.236;2023-04-24T09:56:07;16.20;59.50
13521;DHT22;6832;51.186;3.236;2023-04-24T09:58:35;16.20;59.50
13521;DHT22;6832;51.186;3.236;2023-04-24T10:01:03;16.20;59.50
13521;DHT22;6832;51.186;3.236;2023-04-24T10:03:33;16.30;59.60
13521;DHT22;6832;51.186;3.236;2023-04-24T10:06:01;16.20;59.50
13521;DHT22;6832;51.186;3.236;2023-04-24T10:08:33;16.30;59.60
13521;DHT22;6832;51.186;3.236;2023-04-24T10:11:03;16.30;59.60
13521;DHT22;6832;51.186;3.236;2023-04-24T10:13:31;16.30;59.60
13521;DHT22;6832;51.186;3.236;2023-04-24T10:15:59;16.30;59.60
13521;DHT22;6832;51.186;3.236;2023-04-24T10:18:27;16.30;59.60
13521;DHT22;6832;51.186;3.236;2023-04-24T10:20:54;16.30;59.60
13521;DHT22;6832;51.186;3.236;2023-04-24T10:23:22;16.30;59.60
13521;DHT22;6832;51.186;3.236;2023-04-24T10:25:49;16.30;59.60
13521;DHT22;6832;51.186;3.236;2023-04-24T10:28:19;16.40;59.70
13521;DHT22;6832;51.186;3.236;2023-04-24T10:30:46;16.40;59.70
13521;DHT22;6832;51.186;3.236;2023-04-24T10:33:16;16.40;59.70
13521;DHT22;6832;51.186;3.236;2023-04-24T10:35:45;16.40;59.70
13521;DHT22;6832;51.186;3.236;2023-04-24T10:38:18;16.40;59.70
13521;DHT22;6832;51.186;3.236;2023-04-24T10:40:49;16.40;59.70
13521;DHT22;6832;51.186;3.236;2023-04-24T10:43:19;16.50;59.80
13521;DHT22;6832;51.186;3.236;2023-04-24T10:46:01;16.50;59.80
13521;DHT22;6832;51.186;3.236;2023-04-24T10:48:29;16.50;59.80
13521;DHT22;6832;51.186;3.236;2023-04-24T10:50:56;16.50;59.80
13521;DHT22;6832;51.186;3.236;2023-04-24T10:53:25;16.50;59.80
13521;DHT22;6832;51.186;3.236;2023-04-24T10:55:58;16.50;59.80
13521;DHT22;6832;51.186;3.236;2023-04-24T10:58:38;16.50;59.80
13521;DHT22;6832;51.186;3.236;2023-04-24T11:01:06;16.60;59.80
13521;DHT22;6832;51.186;3.236;2023-04-24T11:03:34;16.60;59.80
13521;DHT22;6832;51.186;3.236;2023-04-24T11:06:03;16.60;59.80
13521;DHT22;6832;51.186;3.236;2023-04-24T11:08:33;16.60;59.80
13521;DHT22;6832;51.186;3.236;2023-04-24T11:11:07;16.70;59.90
13521;DHT22;6832;51.186;3.236;2023-04-24T11:14:08;16.70;59.90
13521;DHT22;6832;51.186;3.236;2023-04-24T11:16:51;16.70;59.90
13521;DHT22;6832;51.186;3.236;2023-04-24T11:19:22;16.70;59.80
13521;DHT22;6832;51.186;3.236;2023-04-24T11:21:57;16.80;60.00
13521;DHT22;6832;51.186;3.236;2023-04-24T11:24:27;16.80;60.00
13521;DHT22;6832;51.186;3.236;2023-04-24T11:26:55;16.80;59.90
13521;DHT22;6832;51.186;3.236;2023-04-24T11:29:38;16.80;60.00
13521;DHT22;6832;51.186;3.236;2023-04-24T11:32:19;16.80;60.00
13521;DHT22;6832;51.186;3.236;2023-04-24T11:34:47;16.80;60.00
13521;DHT22;6832;51.186;3.236;2023-04-24T11:37:14;16.90;60.70
13521;DHT22;6832;51.186;3.236;2023-04-24T11:39:42;16.90;60.00
13521;DHT22;6832;51.186;3.236;2023-04-24T11:42:09;17.00;60.00
13521;DHT22;6832;51.186;3.236;2023-04-24T11:44:37;17.00;60.00
13521;DHT22;6832;51.186;3.236;2023-04-24T11:47:05;17.00;60.00
13521;DHT22;6832;51.186;3.236;2023-04-24T11:49:32;17.00;60.00
13521;DHT22;6832;51.186;3.236;2023-04-24T11:52:00;17.00;59.90
13521;DHT22;6832;51.186;3.236;2023-04-24T11:54:28;17.10;60.00
13521;DHT22;6832;51.186;3.236;2023-04-24T11:56:56;17.10;59.90
13521;DHT22;6832;51.186;3.236;2023-04-24T11:59:23;17.10;60.00
13521;DHT22;6832;51.186;3.236;2023-04-24T12:01:52;17.20;60.00
13521;DHT22;6832;51.186;3.236;2023-04-24T12:04:19;17.20;60.00
13521;DHT22;6832;51.186;3.236;2023-04-24T12:07:01;17.20;59.90
13521;DHT22;6832;51.186;3.236;2023-04-24T12:09:32;17.20;60.00
13521;DHT22;6832;51.186;3.236;2023-04-24T12:12:06;17.20;59.90
13521;DHT22;6832;51.186;3.236;2023-04-24T12:14:42;17.30;60.00
13521;DHT22;6832;51.186;3.236;2023-04-24T12:17:10;17.20;59.90
13521;DHT22;6832;51.186;3.236;2023-04-24T12:19:37;17.30;60.00
13521;DHT22;6832;51.186;3.236;2023-04-24T12:22:05;17.30;60.00
13521;DHT22;6832;51.186;3.236;2023-04-24T12:24:32;17.30;60.00
13521;DHT22;6832;51.186;3.236;2023-04-24T12:26:59;17.30;60.00
13521;DHT22;6832;51.186;3.236;2023-04-24T12:29:31;17.40;60.10
13521;DHT22;6832;51.186;3.236;2023-04-24T12:31:58;17.40;60.10
13521;DHT22;6832;51.186;3.236;2023-04-24T12:34:26;17.40;60.10
13521;DHT22;6832;51.186;3.236;2023-04-24T12:36:53;17.40;60.10
13521;DHT22;6832;51.186;3.236;2023-04-24T12:39:27;17.40;60.20
13521;DHT22;6832;51.186;3.236;2023-04-24T12:41:55;17.50;60.20
13521;DHT22;6832;51.186;3.236;2023-04-24T12:44:29;17.50;60.20
13521;DHT22;6832;51.186;3.236;2023-04-24T12:46:57;17.50;60.20
13521;DHT22;6832;51.186;3.236;2023-04-24T12:49:26;17.50;60.20
13521;DHT22;6832;51.186;3.236;2023-04-24T12:51:53;17.60;60.30
13521;DHT22;6832;51.186;3.236;2023-04-24T12:54:20;17.60;60.30
13521;DHT22;6832;51.186;3.236;2023-04-24T12:56:47;17.60;60.30
13521;DHT22;6832;51.186;3.236;2023-04-24T12:59:14;17.60;60.30
13521;DHT22;6832;51.186;3.236;2023-04-24T13:01:41;17.60;60.20
13521;DHT22;6832;51.186;3.236;2023-04-24T13:04:08;17.60;60.20
13521;DHT22;6832;51.186;3.236;2023-04-24T13:06:37;17.60;60.30
13521;DHT22;6832;51.186;3.236;2023-04-24T13:09:04;17.70;60.30
13521;DHT22;6832;51.186;3.236;2023-04-24T13:11:31;17.70;60.30
13521;DHT22;6832;51.186;3.236;2023-04-24T13:13:58;17.70;60.30
13521;DHT22;6832;51.186;3.236;2023-04-24T13:16:25;17.70;60.30
13521;DHT22;6832;51.186;3.236;2023-04-24T13:18:53;17.80;60.40
13521;DHT22;6832;51.186;3.236;2023-04-24T13:21:20;17.80;60.30
13521;DHT22;6832;51.186;3.236;2023-04-24T13:23:50;17.80;60.90
13521;DHT22;6832;51.186;3.236;2023-04-24T13:26:17;17.80;60.00
13521;DHT22;6832;51.186;3.236;2023-04-24T13:28:44;17.80;60.00
13521;DHT22;6832;51.186;3.236;2023-04-24T13:31:11;17.80;60.00
13521;DHT22;6832;51.186;3.236;2023-04-24T13:33:39;17.90;60.10
13521;DHT22;6832;51.186;3.236;2023-04-24T13:36:06;17.90;60.10
13521;DHT22;6832;51.186;3.236;2023-04-24T13:38:34;17.90;60.10
13521;DHT22;6832;51.186;3.236;2023-04-24T13:41:02;17.90;60.00
13521;DHT22;6832;51.186;3.236;2023-04-24T13:43:29;17.90;60.00
13521;DHT22;6832;51.186;3.236;2023-04-24T13:45:56;18.00;60.10
13521;DHT22;6832;51.186;3.236;2023-04-24T13:48:24;18.00;60.10
13521;DHT22;6832;51.186;3.236;2023-04-24T13:50:51;18.10;60.20
13521;DHT22;6832;51.186;3.236;2023-04-24T13:53:19;18.10;60.20
13521;DHT22;6832;51.186;3.236;2023-04-24T13:55:46;18.10;60.20
13521;DHT22;6832;51.186;3.236;2023-04-24T13:58:15;18.10;60.20
13521;DHT22;6832;51.186;3.236;2023-04-24T14:00:42;18.10;60.20
13521;DHT22;6832;51.186;3.236;2023-04-24T14:03:09;18.10;60.10
13521;DHT22;6832;51.186;3.236;2023-04-24T14:05:36;18.20;60.20
13521;DHT22;6832;51.186;3.236;2023-04-24T14:08:03;18.20;60.20
13521;DHT22;6832;51.186;3.236;2023-04-24T14:10:31;18.20;60.20
13521;DHT22;6832;51.186;3.236;2023-04-24T14:12:58;18.20;60.10
13521;DHT22;6832;51.186;3.236;2023-04-24T14:15:26;18.20;60.20
13521;DHT22;6832;51.186;3.236;2023-04-24T14:17:53;18.20;60.10
13521;DHT22;6832;51.186;3.236;2023-04-24T14:20:20;18.30;60.20
13521;DHT22;6832;51.186;3.236;2023-04-24T14:22:47;18.30;60.20
13521;DHT22;6832;51.186;3.236;2023-04-24T14:25:14;18.30;60.20
13521;DHT22;6832;51.186;3.236;2023-04-24T14:27:42;18.30;60.20
13521;DHT22;6832;51.186;3.236;2023-04-24T14:30:09;18.30;60.20
13521;DHT22;6832;51.186;3.236;2023-04-24T14:32:39;18.40;60.20
13521;DHT22;6832;51.186;3.236;2023-04-24T14:35:07;18.40;60.20
13521;DHT22;6832;51.186;3.236;2023-04-24T14:37:34;18.40;60.20
13521;DHT22;6832;51.186;3.236;2023-04-24T14:40:04;18.40;60.20
13521;DHT22;6832;51.186;3.236;2023-04-24T14:42:33;18.40;60.20
13521;DHT22;6832;51.186;3.236;2023-04-24T14:45:00;18.50;60.30
13521;DHT22;6832;51.186;3.236;2023-04-24T14:47:27;18.50;60.30
13521;DHT22;6832;51.186;3.236;2023-04-24T14:49:56;18.50;60.30
13521;DHT22;6832;51.186;3.236;2023-04-24T14:52:23;18.50;60.30
13521;DHT22;6832;51.186;3.236;2023-04-24T14:54:50;18.50;60.30
13521;DHT22;6832;51.186;3.236;2023-04-24T14:57:17;18.60;60.40
13521;DHT22;6832;51.186;3.236;2023-04-24T14:59:44;18.50;60.20
13521;DHT22;6832;51.186;3.236;2023-04-24T15:02:11;18.60;60.30
13521;DHT22;6832;51.186;3.236;2023-04-24T15:04:39;18.60;60.30
13521;DHT22;6832;51.186;3.236;2023-04-24T15:07:08;18.60;60.30
13521;DHT22;6832;51.186;3.236;2023-04-24T15:09:44;18.60;60.20
13521;DHT22;6832;51.186;3.236;2023-04-24T15:12:12;18.70;60.30
13521;DHT22;6832;51.186;3.236;2023-04-24T15:14:40;18.70;60.30
13521;DHT22;6832;51.186;3.236;2023-04-24T15:17:09;18.70;60.20
13521;DHT22;6832;51.186;3.236;2023-04-24T15:19:36;18.70;60.20
13521;DHT22;6832;51.186;3.236;2023-04-24T15:22:03;18.70;60.20
13521;DHT22;6832;51.186;3.236;2023-04-24T15:24:31;18.70;60.20
13521;DHT22;6832;51.186;3.236;2023-04-24T15:26:59;18.70;60.10
13521;DHT22;6832;51.186;3.236;2023-04-24T15:29:28;18.80;60.20
13521;DHT22;6832;51.186;3.236;2023-04-24T15:31:58;18.80;60.20
13521;DHT22;6832;51.186;3.236;2023-04-24T15:34:25;18.80;60.10
13521;DHT22;6832;51.186;3.236;2023-04-24T15:36:55;18.80;60.10
13521;DHT22;6832;51.186;3.236;2023-04-24T15:39:22;18.80;60.10
13521;DHT22;6832;51.186;3.236;2023-04-24T15:41:52;18.80;60.10
13521;DHT22;6832;51.186;3.236;2023-04-24T15:44:20;18.80;60.90
13521;DHT22;6832;51.186;3.236;2023-04-24T15:46:48;18.80;60.10
13521;DHT22;6832;51.186;3.236;2023-04-24T15:49:17;18.80;60.00
13521;DHT22;6832;51.186;3.236;2023-04-24T15:51:44;18.90;60.10